Time;durP1;ratioP1;P1;durP2;ratioP2;P2;SDS_P1;SDS_P2;PMS_P1;PMS_P2;Temp;Humidity;BMP_temperature;BMP_pressure;BME280_temperature;BME280_humidity;BME280_pressure;Samples;Min_cycle;Max_cycle;Signal;HPM_P1;HPM_P2
2022/12/28 00:02:04;;;;;;;;;;;;;;;6.89;69.64;101506.00;5013701;28;19923;-74
2022/12/28 00:04:30;;;;;;;;;;;;;;;6.88;69.79;101507.84;5013233;28;19917;-74
2022/12/28 00:06:55;;;;;;;;;;;;;;;6.89;69.75;101493.38;5012488;28;19918;-74
2022/12/28 00:09:20;;;;;;;;;;;;;;;6.89;69.67;101504.13;5014626;28;20377;-73
2022/12/28 00:11:45;;;;;;;;;;;;;;;6.88;69.75;101491.75;5013891;28;19969;-73
2022/12/28 00:14:10;;;;;;;;;;;;;;;6.89;69.71;101476.44;5013773;28;19917;-72
2022/12/28 00:16:38;;;;;;;;;;;;;;;6.89;69.74;101468.41;5014333;28;20403;-73
2022/12/28 00:19:04;;;;;;;;;;;;;;;6.89;69.89;101460.34;5014429;28;19956;-73
2022/12/28 00:21:30;;;;;;;;;;;;;;;6.89;69.92;101463.84;5014095;28;19917;-73
2022/12/28 00:23:56;;;;;;;;;;;;;;;6.90;69.79;101446.72;5013139;28;19921;-73
2022/12/28 00:26:22;;;;;;;;;;;;;;;6.91;69.79;101442.19;5014387;28;19918;-74
2022/12/28 00:28:47;;;;;;;;;;;;;;;6.91;69.79;101450.22;5014221;28;19909;-73
2022/12/28 00:31:13;;;;;;;;;;;;;;;6.90;69.92;101446.72;5012716;28;19982;-73
2022/12/28 00:33:38;;;;;;;;;;;;;;;6.92;69.90;101433.06;5013166;28;19918;-73
2022/12/28 00:36:04;;;;;;;;;;;;;;;6.91;69.72;101428.75;5013636;28;20339;-73
2022/12/28 00:38:33;;;;;;;;;;;;;;;6.91;69.73;101420.69;5012937;28;20436;-74
2022/12/28 00:40:58;;;;;;;;;;;;;;;6.92;69.79;101414.28;5014097;28;19920;-73
2022/12/28 00:43:24;;;;;;;;;;;;;;;6.92;69.94;101415.09;5014421;28;19913;-73
2022/12/28 00:45:49;;;;;;;;;;;;;;;6.91;69.71;101418.81;5012464;28;19925;-73
2022/12/28 00:48:14;;;;;;;;;;;;;;;6.92;69.95;101414.28;5012586;28;19924;-73
2022/12/28 00:50:40;;;;;;;;;;;;;;;6.92;69.92;101420.47;5014010;28;20357;-73
2022/12/28 00:53:05;;;;;;;;;;;;;;;6.92;70.20;101415.09;5014528;28;19924;-73
2022/12/28 00:55:34;;;;;;;;;;;;;;;6.93;70.10;101410.56;5012653;28;19920;-74
2022/12/28 00:58:00;;;;;;;;;;;;;;;6.95;70.09;101397.75;5012822;28;20368;-73
2022/12/28 01:00:25;;;;;;;;;;;;;;;6.96;69.91;101390.53;5012310;28;20380;-73
2022/12/28 01:02:51;;;;;;;;;;;;;;;6.95;69.83;101389.69;5012920;28;19909;-73
2022/12/28 01:05:16;;;;;;;;;;;;;;;6.97;70.22;101374.22;5012501;28;19976;-73
2022/12/28 01:07:41;;;;;;;;;;;;;;;6.99;70.03;101380.22;5012503;28;19924;-74
2022/12/28 01:10:07;;;;;;;;;;;;;;;6.99;69.97;101369.47;5012502;28;19951;-74
2022/12/28 01:12:32;;;;;;;;;;;;;;;7.00;69.95;101373.78;5012709;28;20004;-75
2022/12/28 01:14:58;;;;;;;;;;;;;;;7.01;69.96;101371.97;5014367;28;19924;-74
2022/12/28 01:17:23;;;;;;;;;;;;;;;7.02;70.17;101365.53;5014319;28;19918;-74
2022/12/28 01:19:48;;;;;;;;;;;;;;;7.03;70.22;101367.19;5017577;28;20060;-73
2022/12/28 01:22:13;;;;;;;;;;;;;;;7.03;69.90;101354.59;5016351;28;19918;-74
2022/12/28 01:24:39;;;;;;;;;;;;;;;7.03;70.02;101349.22;5017510;28;19921;-74
2022/12/28 01:27:04;;;;;;;;;;;;;;;7.07;69.97;101355.00;5016579;28;20443;-74
2022/12/28 01:29:29;;;;;;;;;;;;;;;7.07;69.95;101346.97;5016224;28;20270;-73
2022/12/28 01:31:54;;;;;;;;;;;;;;;7.07;69.99;101330.84;5016175;28;20271;-74
2022/12/28 01:34:20;;;;;;;;;;;;;;;7.08;69.95;101335.16;5016084;28;19957;-74
2022/12/28 01:36:45;;;;;;;;;;;;;;;7.06;70.02;101324.66;5016241;28;19917;-74
2022/12/28 01:39:11;;;;;;;;;;;;;;;7.08;69.89;101332.47;5016764;28;19941;-74
2022/12/28 01:41:38;;;;;;;;;;;;;;;7.08;70.11;101324.41;5015948;28;20246;-74
2022/12/28 01:44:03;;;;;;;;;;;;;;;7.09;70.08;101315.34;5017199;28;19919;-74
2022/12/28 01:46:48;;;;;;;;;;;;;;;7.10;70.08;101314.31;5017220;28;20016;-74
2022/12/28 01:49:20;;;;;;;;;;;;;;;7.10;70.16;101308.94;5017196;28;19963;-74
2022/12/28 01:51:51;;;;;;;;;;;;;;;7.10;70.19;101312.44;5015454;28;19968;-74
2022/12/28 01:54:17;;;;;;;;;;;;;;;7.12;70.24;101304.19;5015829;28;19949;-73
2022/12/28 01:56:43;;;;;;;;;;;;;;;7.13;70.06;101305.81;5015516;28;20059;-74
2022/12/28 01:59:09;;;;;;;;;;;;;;;7.12;70.35;101296.94;5015726;28;19917;-74
2022/12/28 02:01:34;;;;;;;;;;;;;;;7.13;70.08;101295.09;5015559;28;19924;-74
2022/12/28 02:04:00;;;;;;;;;;;;;;;7.13;70.19;101297.75;5015254;28;19917;-74
2022/12/28 02:06:25;;;;;;;;;;;;;;;7.13;70.06;101290.56;5017049;28;19923;-74
2022/12/28 02:08:54;;;;;;;;;;;;;;;7.16;70.03;101278.56;5016430;28;20314;-74
2022/12/28 02:11:20;;;;;;;;;;;;;;;7.16;70.27;101267.81;5015363;28;20436;-74
2022/12/28 02:13:46;;;;;;;;;;;;;;;7.16;70.07;101265.13;5016592;28;19918;-73
2022/12/28 02:16:12;;;;;;;;;;;;;;;7.17;70.25;101257.91;5031767;28;19913;-74
2022/12/28 02:18:38;;;;;;;;;;;;;;;7.16;70.38;101254.38;5016599;28;19920;-75
2022/12/28 02:21:09;;;;;;;;;;;;;;;7.19;70.55;101261.22;5017036;28;19913;-74
2022/12/28 02:23:37;;;;;;;;;;;;;;;7.19;70.28;101247.78;5016469;28;20388;-74
2022/12/28 02:26:21;;;;;;;;;;;;;;;7.20;70.25;101260.16;5015092;28;19920;-74
2022/12/28 02:29:05;;;;;;;;;;;;;;;7.20;70.60;101252.09;5014445;28;20289;-74
2022/12/28 02:31:39;;;;;;;;;;;;;;;7.20;70.36;101252.91;5015313;28;19924;-74
2022/12/28 02:34:12;;;;;;;;;;;;;;;7.22;70.33;101245.47;5015144;28;19913;-73
2022/12/28 02:36:42;;;;;;;;;;;;;;;7.22;70.66;101241.97;5016517;28;20030;-74
2022/12/28 02:39:12;;;;;;;;;;;;;;;7.22;70.60;101242.81;5015303;28;20032;-73
2022/12/28 02:41:39;;;;;;;;;;;;;;;7.23;70.77;101222.97;5016061;28;20043;-73
2022/12/28 02:44:05;;;;;;;;;;;;;;;7.23;70.58;101232.88;5016086;28;19913;-73
2022/12/28 02:52:16;;;;;;;;;;;;;;;7.26;70.78;101213.66;5015854;28;19971;-73
2022/12/28 02:57:43;;;;;;;;;;;;;;;7.26;70.84;101206.44;5015841;28;20415;-74
2022/12/28 03:00:08;;;;;;;;;;;;;;;7.27;70.77;101197.31;5014758;28;20365;-73
2022/12/28 03:02:51;;;;;;;;;;;;;;;7.27;71.15;101191.13;5015394;28;19913;-73
2022/12/28 03:08:33;;;;;;;;;;;;;;;7.29;71.14;101178.31;5015432;28;20412;-73
2022/12/28 03:11:01;;;;;;;;;;;;;;;7.29;71.43;101181.00;5015883;28;19913;-73
2022/12/28 03:13:42;;;;;;;;;;;;;;;7.29;71.30;101184.50;5014117;28;19967;-73
2022/12/28 03:16:11;;;;;;;;;;;;;;;7.30;71.04;101175.41;5014392;28;19921;-73
2022/12/28 03:32:23;;;;;;;;;;;;;;;7.34;71.61;101171.25;5015479;28;19971;-74
2022/12/28 03:34:48;;;;;;;;;;;;;;;7.36;71.75;101163.00;5015628;28;19921;-73
2022/12/28 03:37:17;;;;;;;;;;;;;;;7.38;71.61;101166.28;5013811;28;19917;-73
2022/12/28 03:39:48;;;;;;;;;;;;;;;7.39;71.51;101173.31;5013747;28;19913;-73
2022/12/28 03:45:17;;;;;;;;;;;;;;;7.40;71.75;101150.78;5015488;28;19933;-74
2022/12/28 03:47:43;;;;;;;;;;;;;;;7.42;71.56;101145.19;5014215;28;20251;-73
2022/12/28 03:50:10;;;;;;;;;;;;;;;7.44;71.34;101153.88;5013572;28;20038;-73
2022/12/28 03:52:35;;;;;;;;;;;;;;;7.44;71.64;101152.00;5013427;28;20362;-73
2022/12/28 03:55:00;;;;;;;;;;;;;;;7.45;71.67;101142.91;5013209;28;19922;-74
2022/12/28 03:57:26;;;;;;;;;;;;;;;7.46;71.37;101144.56;5015420;28;19921;-76
2022/12/28 03:59:51;;;;;;;;;;;;;;;7.49;71.66;101148.69;5015428;28;19917;-76
2022/12/28 04:02:16;;;;;;;;;;;;;;;7.49;71.52;101141.44;5014377;28;19913;-77
2022/12/28 04:04:41;;;;;;;;;;;;;;;7.49;71.92;101144.13;5014503;28;19979;-76
2022/12/28 04:07:07;;;;;;;;;;;;;;;7.52;71.74;101138.34;5014699;28;19914;-76
2022/12/28 04:09:33;;;;;;;;;;;;;;;7.53;71.43;101133.78;5014975;28;20017;-76
2022/12/28 04:11:58;;;;;;;;;;;;;;;7.54;71.54;101132.75;5014565;28;19917;-77
2022/12/28 04:14:23;;;;;;;;;;;;;;;7.55;71.60;101137.91;5014610;28;19932;-77
2022/12/28 04:16:48;;;;;;;;;;;;;;;7.56;71.60;101130.69;5014534;28;19913;-76
2022/12/28 04:19:14;;;;;;;;;;;;;;;7.56;71.66;101131.50;5014508;28;19921;-76
2022/12/28 04:21:39;;;;;;;;;;;;;;;7.58;71.65;101125.91;5013555;28;19968;-76
2022/12/28 04:24:04;;;;;;;;;;;;;;;7.59;71.69;101135.63;5014716;28;19913;-76
2022/12/28 04:26:30;;;;;;;;;;;;;;;7.61;71.43;101128.19;5014519;28;19928;-77
2022/12/28 04:29:00;;;;;;;;;;;;;;;7.61;71.62;101127.31;5014659;28;19970;-76
2022/12/28 04:31:26;;;;;;;;;;;;;;;7.63;71.46;101130.63;5014758;28;19930;-76
2022/12/28 04:33:51;;;;;;;;;;;;;;;7.63;71.62;101128.75;5014323;28;20372;-76
2022/12/28 04:36:16;;;;;;;;;;;;;;;7.65;71.58;101126.69;5012837;28;19914;-77
2022/12/28 04:38:42;;;;;;;;;;;;;;;7.65;71.49;101132.06;5013631;28;19921;-77
2022/12/28 04:41:11;;;;;;;;;;;;;;;7.68;71.33;101125.44;5014237;28;20282;-77
2022/12/28 04:43:37;;;;;;;;;;;;;;;7.68;71.64;101133.50;5014851;28;19917;-76
2022/12/28 04:46:11;;;;;;;;;;;;;;;7.70;71.53;101128.75;5014067;28;19967;-76
2022/12/28 04:48:36;;;;;;;;;;;;;;;7.70;71.43;101118.00;5013747;28;20325;-76
2022/12/28 04:51:06;;;;;;;;;;;;;;;7.71;71.75;101130.38;5014162;28;19945;-76
2022/12/28 04:53:31;;;;;;;;;;;;;;;7.71;71.63;101119.63;5014691;28;19918;-76
2022/12/28 04:56:01;;;;;;;;;;;;;;;7.72;71.74;101124.81;5014017;28;20321;-76
2022/12/28 04:58:26;;;;;;;;;;;;;;;7.74;71.68;101132.66;5014099;28;19917;-77
2022/12/28 05:00:52;;;;;;;;;;;;;;;7.74;71.54;101119.22;5013829;28;20327;-76
2022/12/28 05:03:17;;;;;;;;;;;;;;;7.76;71.57;101127.88;5014002;28;19937;-77
2022/12/28 05:05:42;;;;;;;;;;;;;;;7.76;71.80;101128.72;5012796;28;20020;-76
2022/12/28 05:08:07;;;;;;;;;;;;;;;7.77;71.89;101124.97;5013985;28;19917;-76
2022/12/28 05:10:33;;;;;;;;;;;;;;;7.78;72.03;101128.50;5014003;28;19948;-76
2022/12/28 05:12:58;;;;;;;;;;;;;;;7.79;72.09;101122.91;5013939;28;19917;-76
2022/12/28 05:15:23;;;;;;;;;;;;;;;7.80;71.83;101124.53;5013050;28;20000;-76
2022/12/28 05:17:48;;;;;;;;;;;;;;;7.83;71.77;101125.16;5013807;28;19913;-76
2022/12/28 05:20:15;;;;;;;;;;;;;;;7.83;72.06;101115.22;5014432;28;20024;-76
2022/12/28 05:22:40;;;;;;;;;;;;;;;7.85;71.84;101115.03;5013894;28;20415;-76
2022/12/28 05:25:05;;;;;;;;;;;;;;;7.86;71.85;101130.09;5013541;28;19918;-76
2022/12/28 05:27:31;;;;;;;;;;;;;;;7.86;72.00;101125.56;5012871;28;20357;-75
2022/12/28 05:29:56;;;;;;;;;;;;;;;7.88;71.83;101126.16;5012934;28;19918;-76
2022/12/28 05:32:21;;;;;;;;;;;;;;;7.89;71.98;101121.63;5013318;28;19921;-76
2022/12/28 05:34:46;;;;;;;;;;;;;;;7.90;71.78;101132.16;5013463;28;19917;-75
2022/12/28 05:37:12;;;;;;;;;;;;;;;7.91;71.98;101127.59;5012170;28;20361;-75
2022/12/28 05:39:37;;;;;;;;;;;;;;;7.91;71.88;101124.91;5013459;28;19917;-76
2022/12/28 05:42:02;;;;;;;;;;;;;;;7.92;71.82;101124.69;5013307;28;19972;-76
2022/12/28 05:44:28;;;;;;;;;;;;;;;7.94;71.96;101119.13;5013369;28;19925;-76
2022/12/28 05:46:53;;;;;;;;;;;;;;;7.95;71.64;101120.75;5013423;28;19925;-76
2022/12/28 05:49:19;;;;;;;;;;;;;;;7.96;71.91;101117.00;5013512;28;20415;-75
2022/12/28 05:51:44;;;;;;;;;;;;;;;7.96;71.89;101111.63;5013739;28;19922;-75
2022/12/28 05:54:09;;;;;;;;;;;;;;;7.97;72.03;101103.34;5013330;28;19947;-74
2022/12/28 05:56:34;;;;;;;;;;;;;;;7.98;71.67;101098.78;5013218;28;20296;-75
2022/12/28 05:59:01;;;;;;;;;;;;;;;7.99;71.73;101095.91;5013500;28;19929;-75
2022/12/28 06:01:28;;;;;;;;;;;;;;;8.00;71.63;101091.34;5013541;28;20376;-75
2022/12/28 06:03:54;;;;;;;;;;;;;;;8.00;71.58;101088.66;5013539;28;19921;-75
2022/12/28 06:06:19;;;;;;;;;;;;;;;8.02;71.71;101083.88;5016729;28;19909;-76
2022/12/28 06:08:46;;;;;;;;;;;;;;;8.03;71.94;101085.53;5017444;28;19917;-75
2022/12/28 06:11:12;;;;;;;;;;;;;;;8.02;71.64;101079.31;5016789;28;19917;-75
2022/12/28 06:13:38;;;;;;;;;;;;;;;8.05;71.78;101078.06;5015568;28;20325;-75
2022/12/28 06:16:17;;;;;;;;;;;;;;;8.05;71.93;101080.75;5016533;28;19960;-75
2022/12/28 06:18:42;;;;;;;;;;;;;;;8.07;72.07;101080.53;5016718;28;19952;-76
2022/12/28 06:21:15;;;;;;;;;;;;;;;8.08;71.74;101071.41;5016682;28;19949;-75
2022/12/28 06:23:41;;;;;;;;;;;;;;;8.09;71.88;101070.38;5016656;28;19918;-75
2022/12/28 06:26:08;;;;;;;;;;;;;;;8.09;71.85;101057.75;5016173;28;20320;-74
2022/12/28 06:28:35;;;;;;;;;;;;;;;8.09;72.04;101063.13;5016608;28;19935;-75
2022/12/28 06:31:11;;;;;;;;;;;;;;;8.11;71.92;101063.72;5015473;28;19917;-74
2022/12/28 06:33:37;;;;;;;;;;;;;;;8.11;72.29;101061.03;5015692;28;19972;-74
2022/12/28 06:36:02;;;;;;;;;;;;;;;8.12;72.12;101051.94;5016068;28;20373;-74
2022/12/28 06:38:31;;;;;;;;;;;;;;;8.14;72.35;101051.69;5016341;28;20012;-75
2022/12/28 06:41:06;;;;;;;;;;;;;;;8.13;72.33;101050.88;5016647;28;19913;-75
2022/12/28 06:43:32;;;;;;;;;;;;;;;8.13;72.42;101050.88;5016147;28;20370;-76
2022/12/28 06:45:57;;;;;;;;;;;;;;;8.15;72.31;101056.88;5014973;28;19917;-77
2022/12/28 06:48:23;;;;;;;;;;;;;;;8.15;72.38;101051.50;5016440;28;20405;-74
2022/12/28 06:51:01;;;;;;;;;;;;;;;8.17;72.17;101048.59;5016084;28;19940;-75
2022/12/28 06:53:28;;;;;;;;;;;;;;;8.18;72.51;101040.28;5015903;28;19924;-76
2022/12/28 06:55:58;;;;;;;;;;;;;;;8.18;72.23;101040.28;5016536;28;19920;-76
2022/12/28 06:58:24;;;;;;;;;;;;;;;8.20;72.37;101032.81;5016442;28;20051;-76
2022/12/28 07:00:49;;;;;;;;;;;;;;;8.19;72.55;101033.88;5015957;28;19964;-75
2022/12/28 07:03:14;;;;;;;;;;;;;;;8.20;72.64;101027.44;5015861;28;20417;-75
2022/12/28 07:05:39;;;;;;;;;;;;;;;8.22;72.35;101038.81;5016230;28;19929;-74
2022/12/28 07:08:05;;;;;;;;;;;;;;;8.23;72.79;101027.00;5015737;28;19924;-74
2022/12/28 07:10:31;;;;;;;;;;;;;;;8.23;72.75;101035.06;5016082;28;19917;-74
2022/12/28 07:12:57;;;;;;;;;;;;;;;8.24;72.75;101034.03;5016311;28;19914;-75
2022/12/28 07:15:22;;;;;;;;;;;;;;;8.24;72.99;101034.03;5014878;28;19924;-73
2022/12/28 07:17:47;;;;;;;;;;;;;;;8.26;72.90;101028.41;5015623;28;19917;-74
2022/12/28 07:20:12;;;;;;;;;;;;;;;8.27;72.93;101038.16;5015623;28;20059;-74
2022/12/28 07:22:38;;;;;;;;;;;;;;;8.28;73.14;101022.81;5015501;28;19913;-75
2022/12/28 07:25:03;;;;;;;;;;;;;;;8.29;73.05;101019.94;5015226;28;19917;-75
2022/12/28 07:27:28;;;;;;;;;;;;;;;8.30;72.95;101036.91;5015653;28;20008;-74
2022/12/28 07:29:54;;;;;;;;;;;;;;;8.30;73.12;101023.44;5014095;28;20376;-74
2022/12/28 07:32:19;;;;;;;;;;;;;;;8.31;73.35;101019.69;5014944;28;20251;-74
2022/12/28 07:34:44;;;;;;;;;;;;;;;8.31;73.06;101019.69;5015316;28;19917;-75
2022/12/28 07:37:09;;;;;;;;;;;;;;;8.33;73.14;101028.38;5014597;28;19986;-73
2022/12/28 07:39:35;;;;;;;;;;;;;;;8.35;72.99;101023.59;5014883;28;19917;-74
2022/12/28 07:42:05;;;;;;;;;;;;;;;8.36;73.19;101022.53;5014883;28;19917;-74
2022/12/28 07:44:30;;;;;;;;;;;;;;;8.36;74.18;101020.66;5014809;28;19921;-71
2022/12/28 07:46:55;;;;;;;;;;;;;;;8.39;73.73;101022.09;5014843;28;19925;-73
2022/12/28 07:49:21;;;;;;;;;;;;;;;8.41;73.39;101028.13;5014580;28;19960;-74
2022/12/28 07:51:46;;;;;;;;;;;;;;;8.42;73.14;101021.69;5014961;28;20316;-74
2022/12/28 07:54:11;;;;;;;;;;;;;;;8.41;73.30;101022.72;5015031;28;19917;-74
2022/12/28 07:56:36;;;;;;;;;;;;;;;8.43;73.25;101034.91;5014726;28;19921;-74
2022/12/28 07:59:03;;;;;;;;;;;;;;;8.43;73.13;101032.22;5014517;28;19918;-74
2022/12/28 08:01:30;;;;;;;;;;;;;;;8.44;73.30;101023.13;5014561;28;19916;-74
2022/12/28 08:03:57;;;;;;;;;;;;;;;8.46;73.36;101030.97;5014551;28;19913;-74
2022/12/28 08:06:22;;;;;;;;;;;;;;;8.47;73.16;101029.94;5014116;28;20027;-74
2022/12/28 08:08:50;;;;;;;;;;;;;;;8.49;73.19;101032.38;5014712;28;20460;-74
2022/12/28 08:11:18;;;;;;;;;;;;;;;8.49;73.07;101035.91;5014802;28;20019;-74
2022/12/28 08:13:44;;;;;;;;;;;;;;;8.49;73.07;101035.91;5013088;28;19913;-74
2022/12/28 08:16:10;;;;;;;;;;;;;;;8.51;73.09;101024.91;5013711;28;20261;-74
2022/12/28 08:18:36;;;;;;;;;;;;;;;8.51;73.14;101027.63;5014515;28;19960;-74
2022/12/28 08:21:03;;;;;;;;;;;;;;;8.53;73.26;101025.53;5014492;28;19913;-74
2022/12/28 08:23:29;;;;;;;;;;;;;;;8.52;73.42;101019.31;5014184;28;19932;-74
2022/12/28 08:25:54;;;;;;;;;;;;;;;8.54;73.47;101019.09;5014204;28;19914;-75
2022/12/28 08:28:19;;;;;;;;;;;;;;;8.54;73.41;101022.63;5013490;28;19944;-74
2022/12/28 08:30:45;;;;;;;;;;;;;;;8.55;73.36;101016.19;5014077;28;19924;-74
2022/12/28 08:33:10;;;;;;;;;;;;;;;8.56;73.25;101025.91;5014120;28;19945;-74
2022/12/28 08:35:35;;;;;;;;;;;;;;;8.57;73.03;101015.97;5013709;28;19924;-73
2022/12/28 08:38:01;;;;;;;;;;;;;;;8.58;73.41;101023.81;5013741;28;19921;-74
2022/12/28 08:40:28;;;;;;;;;;;;;;;8.59;73.32;101017.41;5013628;28;19968;-74
2022/12/28 08:43:00;;;;;;;;;;;;;;;8.60;73.30;101018.22;5013917;28;19917;-73
2022/12/28 08:45:25;;;;;;;;;;;;;;;8.60;73.26;101023.59;5013576;28;20040;-74
2022/12/28 08:47:51;;;;;;;;;;;;;;;8.61;73.27;101023.34;5014602;28;19957;-74
2022/12/28 08:50:17;;;;;;;;;;;;;;;8.62;73.20;101022.31;5012525;28;19914;-74
2022/12/28 08:52:42;;;;;;;;;;;;;;;8.63;73.36;101017.75;5013555;28;19917;-75
2022/12/28 08:55:07;;;;;;;;;;;;;;;8.64;73.25;101031.00;5013833;28;20261;-74
2022/12/28 08:57:32;;;;;;;;;;;;;;;8.64;73.59;101025.63;5012351;28;19924;-75
2022/12/28 08:59:58;;;;;;;;;;;;;;;8.65;73.35;101015.66;5012420;28;20048;-74
2022/12/28 09:02:23;;;;;;;;;;;;;;;8.66;73.48;101022.69;5013371;28;19967;-74
2022/12/28 09:04:48;;;;;;;;;;;;;;;8.66;73.52;101011.91;5014234;28;20272;-74
2022/12/28 09:07:13;;;;;;;;;;;;;;;8.68;73.32;101020.59;5013628;28;19917;-74
2022/12/28 09:09:39;;;;;;;;;;;;;;;8.69;73.42;101013.34;5012097;28;19917;-76
2022/12/28 09:12:06;;;;;;;;;;;;;;;8.69;73.57;101018.72;5013620;28;19917;-74
2022/12/28 09:14:32;;;;;;;;;;;;;;;8.70;73.44;101015.81;5013352;28;19914;-74
2022/12/28 09:16:57;;;;;;;;;;;;;;;8.72;73.37;101015.59;5013689;28;20412;-74
2022/12/28 09:19:22;;;;;;;;;;;;;;;8.74;73.30;101016.19;5013120;28;19924;-70
2022/12/28 09:21:51;;;;;;;;;;;;;;;8.73;73.44;101007.28;5012769;28;19917;-75
2022/12/28 09:24:16;;;;;;;;;;;;;;;8.75;73.34;101018.66;5013710;28;20051;-75
2022/12/28 09:26:41;;;;;;;;;;;;;;;8.76;73.60;101003.31;5013761;28;20337;-75
2022/12/28 09:29:07;;;;;;;;;;;;;;;8.76;73.21;101009.53;5013662;28;19929;-74
2022/12/28 09:31:35;;;;;;;;;;;;;;;8.78;73.47;101003.94;5013406;28;20004;-74
2022/12/28 09:34:01;;;;;;;;;;;;;;;8.78;73.49;101010.13;5013311;28;19925;-73
2022/12/28 09:36:31;;;;;;;;;;;;;;;8.79;73.46;101009.06;5012944;28;19913;-75
2022/12/28 09:38:56;;;;;;;;;;;;;;;8.80;73.43;101018.00;5014686;28;19920;-75
2022/12/28 09:41:27;;;;;;;;;;;;;;;8.81;73.45;101007.00;5016837;28;19921;-74
2022/12/28 09:43:59;;;;;;;;;;;;;;;8.83;73.15;101012.16;5017245;28;19913;-75
2022/12/28 09:46:25;;;;;;;;;;;;;;;8.85;73.40;101018.16;5015764;28;20257;-75
2022/12/28 09:48:53;;;;;;;;;;;;;;;8.86;73.09;101017.09;5017066;28;19918;-75
2022/12/28 09:51:19;;;;;;;;;;;;;;;8.87;73.29;101016.88;5015463;28;19960;-75
2022/12/28 09:53:45;;;;;;;;;;;;;;;8.87;73.41;101016.88;5016614;28;19956;-75
2022/12/28 09:56:13;;;;;;;;;;;;;;;8.88;73.32;101017.69;5015615;28;19921;-75
2022/12/28 09:58:39;;;;;;;;;;;;;;;8.88;73.37;101015.81;5015406;28;20300;-75
2022/12/28 10:01:08;;;;;;;;;;;;;;;8.89;73.47;101013.94;5016682;28;19913;-73
2022/12/28 10:03:36;;;;;;;;;;;;;;;8.91;73.29;101017.25;5016755;28;19913;-74
2022/12/28 10:06:02;;;;;;;;;;;;;;;8.92;73.27;101018.91;5016196;28;19948;-75
2022/12/28 10:08:28;;;;;;;;;;;;;;;8.94;73.02;101016.78;5016596;28;20349;-75
2022/12/28 10:10:56;;;;;;;;;;;;;;;8.96;73.25;101008.50;5016261;28;19913;-75
2022/12/28 10:13:22;;;;;;;;;;;;;;;8.96;73.06;101003.09;5016320;28;19917;-74
2022/12/28 10:15:48;;;;;;;;;;;;;;;8.97;73.46;101004.72;5016529;28;19939;-74
2022/12/28 10:18:14;;;;;;;;;;;;;;;8.96;73.44;100998.53;5016694;28;19921;-74
2022/12/28 10:20:41;;;;;;;;;;;;;;;8.98;73.49;100998.31;5016151;28;20414;-75
2022/12/28 10:23:10;;;;;;;;;;;;;;;9.00;73.33;100998.91;5016030;28;19920;-75
2022/12/28 10:25:36;;;;;;;;;;;;;;;9.00;73.47;100997.03;5016280;28;19960;-75
2022/12/28 10:28:05;;;;;;;;;;;;;;;9.00;73.31;100988.97;5016114;28;19969;-74
2022/12/28 10:30:30;;;;;;;;;;;;;;;9.01;73.60;100998.69;5016129;28;19913;-75
2022/12/28 10:32:56;;;;;;;;;;;;;;;9.03;73.36;101004.66;5016111;28;19971;-74
2022/12/28 10:35:24;;;;;;;;;;;;;;;9.04;73.43;101010.88;5015975;28;20425;-74
2022/12/28 10:37:49;;;;;;;;;;;;;;;9.04;73.47;100990.13;5015826;28;19914;-71
2022/12/28 10:40:26;;;;;;;;;;;;;;;9.04;73.64;100992.81;5016104;28;19923;-75
2022/12/28 10:42:53;;;;;;;;;;;;;;;9.06;73.65;100995.31;5016591;28;20016;-74
2022/12/28 10:45:20;;;;;;;;;;;;;;;9.07;73.56;100999.63;5016586;28;19961;-75
2022/12/28 10:47:47;;;;;;;;;;;;;;;9.06;73.54;100990.75;5015841;28;19913;-72
2022/12/28 10:50:31;;;;;;;;;;;;;;;9.08;73.48;100985.94;5014897;28;19920;-74
2022/12/28 10:52:57;;;;;;;;;;;;;;;9.09;73.54;100992.97;5016048;28;19921;-74
2022/12/28 10:55:27;;;;;;;;;;;;;;;9.10;73.67;100983.03;5015740;28;19963;-73
2022/12/28 10:57:52;;;;;;;;;;;;;;;9.11;73.60;100984.66;5015962;28;19959;-74
2022/12/28 11:00:19;;;;;;;;;;;;;;;9.11;73.78;100981.97;5015663;28;19918;-74
2022/12/28 11:02:44;;;;;;;;;;;;;;;9.14;73.60;100986.09;5016050;28;19964;-75
2022/12/28 11:05:17;;;;;;;;;;;;;;;9.16;73.55;100978.59;5015357;28;20253;-74
2022/12/28 11:07:44;;;;;;;;;;;;;;;9.16;73.46;100976.72;5015946;28;20025;-74
2022/12/28 11:10:27;;;;;;;;;;;;;;;9.20;73.54;100966.34;5015769;28;19917;-74
2022/12/28 11:12:54;;;;;;;;;;;;;;;9.20;73.50;100969.03;5015641;28;19913;-74
2022/12/28 11:15:23;;;;;;;;;;;;;;;9.21;73.65;100959.88;5015485;28;19939;-73
2022/12/28 11:17:52;;;;;;;;;;;;;;;9.21;73.72;100966.09;5015933;28;20372;-74
2022/12/28 11:20:19;;;;;;;;;;;;;;;9.22;73.55;100953.44;5015318;28;19953;-73
2022/12/28 11:22:46;;;;;;;;;;;;;;;9.24;73.55;100956.72;5013943;28;20020;-75
2022/12/28 11:25:16;;;;;;;;;;;;;;;9.24;73.42;100949.44;5013572;28;19917;-75
2022/12/28 11:27:41;;;;;;;;;;;;;;;9.25;73.51;100937.63;5015700;28;19918;-74
2022/12/28 11:30:11;;;;;;;;;;;;;;;9.27;73.79;100934.69;5015214;28;19913;-75
2022/12/28 11:32:41;;;;;;;;;;;;;;;9.29;74.01;100941.50;5014782;28;19913;-76
2022/12/28 11:35:13;;;;;;;;;;;;;;;9.32;74.00;100930.28;5013544;28;19913;-74
2022/12/28 11:37:47;;;;;;;;;;;;;;;9.34;73.73;100930.03;5014740;28;19920;-74
2022/12/28 11:40:32;;;;;;;;;;;;;;;9.35;73.75;100925.47;5014533;28;19913;-75
2022/12/28 11:42:57;;;;;;;;;;;;;;;9.36;73.89;100922.53;5014552;28;19913;-75
2022/12/28 11:45:41;;;;;;;;;;;;;;;9.37;73.88;100921.47;5014980;28;20255;-75
2022/12/28 11:48:25;;;;;;;;;;;;;;;9.39;73.69;100905.09;5013777;28;19917;-75
2022/12/28 11:50:51;;;;;;;;;;;;;;;9.39;73.58;100900.50;5014827;28;19921;-75
2022/12/28 11:53:21;;;;;;;;;;;;;;;9.40;73.40;100901.31;5014824;28;19921;-75
2022/12/28 11:55:52;;;;;;;;;;;;;;;9.41;73.64;100901.09;5014687;28;20479;-73
2022/12/28 11:58:44;;;;;;;;;;;;;;;9.42;73.42;100904.63;5014650;28;19921;-75
2022/12/28 12:01:11;;;;;;;;;;;;;;;9.44;73.43;100897.13;5012509;28;20004;-75
2022/12/28 12:03:54;;;;;;;;;;;;;;;9.44;73.54;100889.84;5014347;28;19913;-74
2022/12/28 12:06:19;;;;;;;;;;;;;;;9.45;73.43;100893.34;5014091;28;19921;-75
2022/12/28 12:08:47;;;;;;;;;;;;;;;9.45;73.47;100883.41;5014227;28;20361;-75
2022/12/28 12:11:20;;;;;;;;;;;;;;;9.46;73.44;100876.97;5014307;28;19913;-76
2022/12/28 12:13:47;;;;;;;;;;;;;;;9.47;73.55;100881.28;5013861;28;20289;-75
2022/12/28 12:16:21;;;;;;;;;;;;;;;9.48;73.32;100869.47;5014632;28;19918;-75
2022/12/28 12:18:53;;;;;;;;;;;;;;;9.48;73.52;100865.97;5014164;28;19940;-75
2022/12/28 12:21:30;;;;;;;;;;;;;;;9.50;73.43;100847.69;5014130;28;19921;-74
2022/12/28 12:24:28;;;;;;;;;;;;;;;9.50;73.35;100845.78;5014343;28;20353;-74
2022/12/28 12:27:00;;;;;;;;;;;;;;;9.51;73.28;100844.72;5013300;28;19920;-73
2022/12/28 12:29:30;;;;;;;;;;;;;;;9.52;73.18;100838.31;5013791;28;20373;-74
2022/12/28 12:31:56;;;;;;;;;;;;;;;9.52;73.36;100830.22;5013956;28;19929;-74
2022/12/28 12:34:25;;;;;;;;;;;;;;;9.54;73.48;100822.69;5014303;28;20016;-74
2022/12/28 12:36:50;;;;;;;;;;;;;;;9.54;73.34;100820.00;5013642;28;19917;-74
2022/12/28 12:39:22;;;;;;;;;;;;;;;9.56;73.27;100816.25;5013781;28;19913;-74
2022/12/28 12:41:59;;;;;;;;;;;;;;;9.56;73.23;100803.59;5013622;28;20357;-75
2022/12/28 12:44:47;;;;;;;;;;;;;;;9.57;73.29;100793.63;5013956;28;19920;-74
2022/12/28 12:47:25;;;;;;;;;;;;;;;9.57;73.05;100789.03;5007863;28;19917;-75
2022/12/28 12:49:59;;;;;;;;;;;;;;;9.58;73.22;100788.00;5013643;28;19914;-73
2022/12/28 12:52:27;;;;;;;;;;;;;;;9.59;73.13;100781.53;5013416;28;19917;-74
2022/12/28 12:55:04;;;;;;;;;;;;;;;9.61;73.01;100781.31;5013469;28;19909;-74
2022/12/28 12:57:39;;;;;;;;;;;;;;;9.61;73.17;100784.00;5013687;28;19914;-74
2022/12/28 13:00:15;;;;;;;;;;;;;;;9.61;72.90;100779.44;5013586;28;19914;-74
2022/12/28 13:02:46;;;;;;;;;;;;;;;9.62;73.01;100774.84;5013472;28;19914;-74
2022/12/28 13:05:19;;;;;;;;;;;;;;;9.63;73.05;100760.31;5013815;28;19921;-74
2022/12/28 13:07:45;;;;;;;;;;;;;;;9.63;72.96;100758.44;5013700;28;19921;-74
2022/12/28 13:10:16;;;;;;;;;;;;;;;9.64;73.08;100756.56;5013753;28;19913;-74
2022/12/28 13:12:41;;;;;;;;;;;;;;;9.64;72.97;100749.28;5013382;28;19921;-74
2022/12/28 13:15:14;;;;;;;;;;;;;;;9.66;73.06;100743.66;5017172;28;19990;-74
2022/12/28 13:17:56;;;;;;;;;;;;;;;9.66;72.93;100740.97;5017502;28;19913;-74
2022/12/28 13:20:22;;;;;;;;;;;;;;;9.66;73.00;100736.38;5018000;28;19917;-74